createdAt,value
2023-01-08T00:00:53.501Z,4.40
2023-01-08T00:03:22.057Z,5.27
2023-01-08T00:05:50.527Z,4.40
2023-01-08T00:08:18.916Z,4.73
2023-01-08T00:10:55.381Z,4.87
2023-01-08T00:13:23.766Z,4.67
2023-01-08T00:15:51.968Z,5.03
2023-01-08T00:18:20.759Z,4.97
2023-01-08T00:20:48.899Z,4.60
2023-01-08T00:23:18.387Z,9.27
2023-01-08T00:25:47.036Z,4.53
2023-01-08T00:28:17.117Z,5.07
2023-01-08T00:30:45.573Z,5.00
2023-01-08T00:33:14.324Z,4.50
2023-01-08T00:35:42.600Z,4.60
2023-01-08T00:38:10.810Z,4.73
2023-01-08T00:40:40.451Z,4.43
2023-01-08T00:43:08.885Z,4.60
2023-01-08T00:45:38.360Z,5.10
2023-01-08T00:48:06.989Z,3.97
2023-01-08T00:50:35.364Z,4.13
2023-01-08T00:53:04.283Z,4.27
2023-01-08T00:55:32.685Z,4.57
2023-01-08T00:58:01.271Z,4.40
2023-01-08T01:00:29.736Z,4.37
2023-01-08T01:02:59.187Z,4.13
2023-01-08T01:05:27.292Z,4.07
2023-01-08T01:07:55.710Z,4.80
2023-01-08T01:10:24.533Z,4.80
2023-01-08T01:12:52.634Z,4.17
2023-01-08T01:15:21.271Z,4.60
2023-01-08T01:17:49.739Z,4.40
2023-01-08T01:20:19.193Z,4.57
2023-01-08T01:22:47.553Z,4.57
2023-01-08T01:25:15.867Z,5.03
2023-01-08T01:27:44.118Z,5.07
2023-01-08T01:30:12.938Z,4.83
2023-01-08T01:32:41.377Z,4.23
2023-01-08T01:35:10.167Z,4.37
2023-01-08T01:37:39.815Z,4.17
2023-01-08T01:40:08.634Z,6.67
2023-01-08T01:42:44.110Z,3.93
2023-01-08T01:45:21.055Z,4.33
2023-01-08T01:47:52.827Z,4.13
2023-01-08T01:50:27.134Z,4.30
2023-01-08T01:52:59.756Z,3.97
2023-01-08T01:55:28.774Z,4.07
2023-01-08T01:58:04.262Z,8.83
2023-01-08T02:00:34.239Z,4.13
2023-01-08T02:03:03.193Z,3.70
2023-01-08T02:05:35.850Z,3.83
2023-01-08T02:08:10.574Z,3.80
2023-01-08T02:10:44.425Z,4.23
2023-01-08T02:13:16.105Z,4.53
2023-01-08T02:15:49.956Z,4.03
2023-01-08T02:18:20.996Z,4.30
2023-01-08T02:20:52.048Z,3.97
2023-01-08T02:23:28.882Z,3.97
2023-01-08T02:26:13.424Z,4.33
2023-01-08T02:28:45.087Z,3.47
2023-01-08T02:31:14.211Z,4.03
2023-01-08T02:33:42.787Z,4.00
2023-01-08T02:36:26.808Z,3.73
2023-01-08T02:39:03.541Z,3.80
2023-01-08T02:41:40.802Z,4.53
2023-01-08T02:44:10.922Z,4.17
2023-01-08T02:46:42.943Z,4.00
2023-01-08T02:49:14.954Z,4.37
2023-01-08T02:51:47.698Z,4.53
2023-01-08T02:54:20.899Z,4.30
2023-01-08T02:56:54.733Z,4.57
2023-01-08T02:59:24.505Z,4.80
2023-01-08T03:01:53.657Z,4.53
2023-01-08T03:04:25.407Z,5.00
2023-01-08T03:06:53.867Z,4.77
2023-01-08T03:09:22.276Z,4.50
2023-01-08T03:11:56.410Z,4.27
2023-01-08T03:14:29.332Z,4.43
2023-01-08T03:17:00.129Z,4.13
2023-01-08T03:19:32.946Z,4.30
2023-01-08T03:22:02.992Z,4.40
2023-01-08T03:24:35.294Z,3.93
2023-01-08T03:27:08.490Z,4.27
2023-01-08T03:29:39.033Z,4.50
2023-01-08T03:32:12.750Z,4.43
2023-01-08T03:34:44.970Z,3.83
2023-01-08T03:37:14.966Z,4.17
2023-01-08T03:39:47.818Z,4.40
2023-01-08T03:42:19.726Z,4.97
2023-01-08T03:44:48.329Z,4.00
2023-01-08T03:47:17.070Z,4.30
2023-01-08T03:49:46.671Z,4.47
2023-01-08T03:52:22.765Z,4.43
2023-01-08T03:54:51.225Z,4.00
2023-01-08T03:57:20.957Z,4.50
2023-01-08T03:59:49.348Z,4.47
2023-01-08T04:02:18.133Z,4.40
2023-01-08T04:04:46.713Z,4.50
2023-01-08T04:07:15.194Z,4.80
2023-01-08T04:09:43.253Z,4.50
2023-01-08T04:12:11.619Z,4.33
2023-01-08T04:14:41.246Z,4.00
2023-01-08T04:17:12.733Z,5.07
2023-01-08T04:19:41.097Z,4.23
2023-01-08T04:22:11.630Z,4.53
2023-01-08T04:24:40.021Z,7.27
2023-01-08T04:27:08.161Z,3.90
2023-01-08T04:29:36.585Z,5.43
2023-01-08T04:32:06.582Z,4.53
2023-01-08T04:34:34.983Z,4.60
2023-01-08T04:37:03.342Z,4.53
2023-01-08T04:39:31.772Z,4.37
2023-01-08T04:42:00.123Z,4.40
2023-01-08T04:44:28.490Z,4.40
2023-01-08T04:46:56.608Z,4.93
2023-01-08T04:49:26.082Z,4.73
2023-01-08T04:51:54.262Z,4.57
2023-01-08T04:54:22.630Z,4.60
2023-01-08T04:56:52.680Z,4.80
2023-01-08T04:59:20.956Z,4.80
2023-01-08T05:01:49.227Z,4.97
2023-01-08T05:04:17.692Z,4.67
2023-01-08T05:06:47.533Z,5.10
2023-01-08T05:09:15.610Z,5.13
2023-01-08T05:11:44.296Z,4.20
2023-01-08T05:14:12.942Z,4.60
2023-01-08T05:16:41.298Z,4.27
2023-01-08T05:19:12.439Z,4.33
2023-01-08T05:21:40.808Z,4.03
2023-01-08T05:24:10.593Z,4.47
2023-01-08T05:26:38.983Z,4.27
2023-01-08T05:29:07.356Z,4.63
2023-01-08T05:31:35.746Z,4.57
2023-01-08T05:34:04.113Z,4.83
2023-01-08T05:36:32.213Z,3.90
2023-01-08T05:39:00.651Z,4.17
2023-01-08T05:41:30.468Z,4.80
2023-01-08T05:43:58.917Z,4.00
2023-01-08T05:46:27.388Z,4.33
2023-01-08T05:48:55.743Z,4.67
2023-01-08T05:51:24.163Z,3.80
2023-01-08T05:53:52.645Z,4.30
2023-01-08T05:56:21.125Z,3.90
2023-01-08T05:58:50.886Z,7.37
2023-01-08T06:01:19.311Z,4.13
2023-01-08T06:03:47.749Z,4.30
2023-01-08T06:06:16.703Z,4.17
2023-01-08T06:08:45.103Z,4.50
2023-01-08T06:11:13.862Z,4.10
2023-01-08T06:13:43.816Z,3.83
2023-01-08T06:16:13.724Z,4.50
2023-01-08T06:18:41.912Z,4.10
2023-01-08T06:21:10.316Z,4.33
2023-01-08T06:23:38.719Z,4.53
2023-01-08T06:26:07.243Z,4.00
2023-01-08T06:28:35.756Z,4.47
2023-01-08T06:31:04.500Z,3.90
2023-01-08T06:33:34.295Z,4.07
2023-01-08T06:36:04.392Z,4.13
2023-01-08T06:38:33.386Z,4.07
2023-01-08T06:41:05.192Z,4.10
2023-01-08T06:43:36.362Z,4.10
2023-01-08T06:46:05.199Z,4.27
2023-01-08T06:48:34.722Z,3.93
2023-01-08T06:51:06.107Z,4.10
2023-01-08T06:53:34.674Z,3.93
2023-01-08T06:56:04.317Z,13.80
2023-01-08T06:58:32.383Z,3.93
2023-01-08T07:01:00.492Z,4.03
2023-01-08T07:03:28.596Z,4.37
2023-01-08T07:05:58.429Z,4.07
2023-01-08T07:08:26.478Z,4.40
2023-01-08T07:10:54.847Z,4.53
2023-01-08T07:13:23.917Z,3.50
2023-01-08T07:15:52.281Z,4.57
2023-01-08T07:18:22.479Z,4.10
2023-01-08T07:20:50.713Z,3.80
2023-01-08T07:23:20.141Z,4.03
2023-01-08T07:25:48.451Z,4.20
2023-01-08T07:28:16.928Z,4.00
2023-01-08T07:30:45.268Z,4.23
2023-01-08T07:33:13.676Z,4.20
2023-01-08T07:35:42.030Z,4.07
2023-01-08T07:38:10.163Z,4.53
2023-01-08T07:40:39.715Z,4.20
2023-01-08T07:43:07.988Z,4.23
2023-01-08T07:45:36.405Z,4.60
2023-01-08T07:48:05.038Z,3.70
2023-01-08T07:50:33.368Z,3.87
2023-01-08T07:53:02.409Z,4.13
2023-01-08T07:55:31.518Z,4.43
2023-01-08T07:58:01.095Z,3.90
2023-01-08T08:00:29.618Z,4.10
2023-01-08T08:02:58.221Z,3.93
2023-01-08T08:05:26.632Z,4.23
2023-01-08T08:07:55.124Z,4.13
2023-01-08T08:10:23.491Z,4.20
2023-01-08T08:12:51.903Z,3.93
2023-01-08T08:15:21.724Z,4.50
2023-01-08T08:17:50.460Z,4.10
2023-01-08T08:20:19.025Z,3.70
2023-01-08T08:22:47.439Z,4.00
2023-01-08T08:25:16.184Z,3.73
2023-01-08T08:27:44.758Z,4.30
2023-01-08T08:30:14.095Z,3.83
2023-01-08T08:32:43.959Z,4.00
2023-01-08T08:35:12.296Z,4.27
2023-01-08T08:37:40.872Z,4.10
2023-01-08T08:40:09.960Z,3.90
2023-01-08T08:42:38.658Z,3.87
2023-01-08T08:45:08.160Z,4.20
2023-01-08T08:47:36.657Z,3.67
2023-01-08T08:50:07.160Z,4.17
2023-01-08T08:52:37.610Z,3.93
2023-01-08T08:55:06.969Z,4.33
2023-01-08T08:57:35.368Z,3.90
2023-01-08T09:00:03.749Z,3.77
2023-01-08T09:02:32.525Z,4.00
2023-01-08T09:05:00.978Z,3.67
2023-01-08T09:07:32.553Z,4.07
2023-01-08T09:10:01.076Z,4.13
2023-01-08T09:12:29.705Z,4.00
2023-01-08T09:14:58.224Z,3.93
2023-01-08T09:17:26.917Z,4.53
2023-01-08T09:19:57.186Z,4.30
2023-01-08T09:22:25.574Z,3.77
2023-01-08T09:24:55.371Z,3.93
2023-01-08T09:27:23.486Z,3.80
2023-01-08T09:29:51.998Z,3.90
2023-01-08T09:32:20.684Z,4.33
2023-01-08T09:34:49.467Z,3.67
2023-01-08T09:37:18.176Z,4.00
2023-01-08T09:39:51.302Z,3.83
2023-01-08T09:42:25.697Z,3.33
2023-01-08T09:44:56.448Z,3.73
2023-01-08T09:47:28.385Z,4.13
2023-01-08T09:50:01.093Z,4.73
2023-01-08T09:52:29.795Z,3.50
2023-01-08T09:54:58.123Z,3.17
2023-01-08T09:57:28.280Z,3.23
2023-01-08T09:59:56.865Z,3.70
2023-01-08T10:02:26.785Z,3.67
2023-01-08T10:04:57.362Z,3.70
2023-01-08T10:07:26.571Z,3.07
2023-01-08T10:09:55.225Z,4.90
2023-01-08T10:12:29.941Z,3.27
2023-01-08T10:15:00.528Z,3.53
2023-01-08T10:17:32.634Z,3.40
2023-01-08T10:20:01.066Z,3.50
2023-01-08T10:22:34.613Z,3.43
2023-01-08T10:25:08.965Z,4.20
2023-01-08T10:27:47.444Z,4.37
2023-01-08T10:30:19.773Z,3.67
2023-01-08T10:32:51.575Z,3.10
2023-01-08T10:35:23.087Z,8.03
2023-01-08T10:37:51.539Z,3.20
2023-01-08T10:40:25.491Z,3.00
2023-01-08T10:42:57.187Z,3.90
2023-01-08T10:45:28.534Z,8.10
2023-01-08T10:48:00.292Z,7.00
2023-01-08T10:50:30.273Z,7.40
2023-01-08T10:53:01.082Z,5.03
2023-01-08T10:55:31.549Z,3.77
2023-01-08T10:58:02.896Z,4.00
2023-01-08T11:00:32.770Z,4.07
2023-01-08T11:03:03.331Z,6.37
2023-01-08T11:05:35.197Z,7.57
2023-01-08T11:08:08.112Z,5.33
2023-01-08T11:10:38.781Z,4.67
2023-01-08T11:13:10.498Z,5.57
2023-01-08T11:15:40.071Z,4.70
2023-01-08T11:18:15.783Z,5.67
2023-01-08T11:20:43.933Z,6.43
2023-01-08T11:23:18.247Z,7.67
2023-01-08T11:25:52.537Z,5.87
2023-01-08T11:28:30.552Z,5.47
2023-01-08T11:31:11.239Z,5.67
2023-01-08T11:33:41.607Z,4.93
2023-01-08T11:36:21.103Z,4.97
2023-01-08T11:38:49.521Z,4.73
2023-01-08T11:41:35.409Z,4.90
2023-01-08T11:44:22.363Z,4.10
2023-01-08T11:47:00.112Z,4.10
2023-01-08T11:49:51.244Z,4.10
2023-01-08T11:52:34.392Z,4.37
2023-01-08T11:55:17.190Z,4.07
2023-01-08T11:57:57.269Z,4.10
2023-01-08T12:00:39.546Z,3.73
2023-01-08T12:03:17.739Z,4.30
2023-01-08T12:05:48.510Z,4.23
2023-01-08T12:08:22.354Z,4.70
2023-01-08T12:10:56.822Z,4.40
2023-01-08T12:13:35.597Z,4.30
2023-01-08T12:16:12.437Z,3.77
2023-01-08T12:18:49.338Z,4.30
2023-01-08T12:21:22.818Z,3.80
2023-01-08T12:24:18.873Z,4.50
2023-01-08T12:26:57.008Z,4.30
2023-01-08T12:29:52.429Z,3.90
2023-01-08T12:32:30.327Z,4.37
2023-01-08T12:35:04.730Z,4.17
2023-01-08T12:37:36.907Z,4.20
2023-01-08T12:40:08.853Z,4.10
2023-01-08T12:42:46.718Z,4.30
2023-01-08T12:45:25.077Z,3.80
2023-01-08T12:47:56.735Z,4.23
2023-01-08T12:50:40.534Z,4.60
2023-01-08T12:53:16.185Z,4.40
2023-01-08T12:55:51.990Z,4.30
2023-01-08T12:58:30.154Z,4.27
2023-01-08T13:01:04.097Z,4.37
2023-01-08T13:03:35.779Z,4.30
2023-01-08T13:06:10.445Z,4.23
2023-01-08T13:08:40.058Z,4.43
2023-01-08T13:11:09.487Z,4.73
2023-01-08T13:13:44.247Z,4.33
2023-01-08T13:16:24.416Z,4.13
2023-01-08T13:18:55.208Z,3.93
2023-01-08T13:21:37.415Z,4.93
2023-01-08T13:24:21.912Z,4.53
2023-01-08T13:26:50.332Z,4.50
2023-01-08T13:29:38.784Z,3.80
2023-01-08T13:32:24.744Z,3.70
2023-01-08T13:35:04.056Z,4.00
2023-01-08T13:37:32.434Z,3.43
2023-01-08T13:40:00.760Z,6.87
2023-01-08T13:42:29.513Z,4.17
2023-01-08T13:45:02.554Z,4.27
2023-01-08T13:47:33.019Z,3.93
2023-01-08T13:50:04.129Z,4.30
2023-01-08T13:52:43.828Z,4.30
2023-01-08T13:55:18.293Z,4.00
2023-01-08T13:57:50.123Z,4.07
2023-01-08T14:00:25.301Z,3.87
2023-01-08T14:02:55.364Z,4.07
2023-01-08T14:05:26.535Z,4.80
2023-01-08T14:07:56.388Z,3.90
2023-01-08T14:10:25.222Z,3.83
2023-01-08T14:12:53.834Z,5.13
2023-01-08T14:15:24.943Z,4.53
2023-01-08T14:17:53.573Z,4.10
2023-01-08T14:20:29.961Z,4.60
2023-01-08T14:22:59.970Z,4.37
2023-01-08T14:25:28.565Z,5.20
2023-01-08T14:27:58.524Z,4.87
2023-01-08T14:30:27.309Z,4.43
2023-01-08T14:32:56.482Z,4.47
2023-01-08T14:35:32.457Z,4.10
2023-01-08T14:38:05.702Z,3.97
2023-01-08T14:40:38.297Z,3.87
2023-01-08T14:43:10.153Z,3.87
2023-01-08T14:45:39.711Z,3.80
2023-01-08T14:48:13.791Z,3.83
2023-01-08T14:50:44.143Z,3.87
2023-01-08T14:53:20.126Z,3.77
2023-01-08T14:55:50.807Z,3.70
2023-01-08T14:58:23.104Z,4.03
2023-01-08T15:00:55.816Z,3.30
2023-01-08T15:03:32.213Z,5.23
2023-01-08T15:06:00.860Z,2.97
2023-01-08T15:08:34.585Z,3.57
2023-01-08T15:11:05.052Z,2.90
2023-01-08T15:13:34.487Z,3.00
2023-01-08T15:16:06.848Z,2.90
2023-01-08T15:18:38.064Z,2.93
2023-01-08T15:21:08.461Z,2.63
2023-01-08T15:23:42.212Z,2.50
2023-01-08T15:26:14.252Z,2.80
2023-01-08T15:28:47.746Z,3.20
2023-01-08T15:31:24.849Z,2.80
2023-01-08T15:33:53.298Z,2.60
2023-01-08T15:36:21.518Z,2.93
2023-01-08T15:38:52.311Z,3.10
2023-01-08T15:41:42.321Z,3.10
2023-01-08T15:44:10.156Z,2.80
2023-01-08T15:46:38.507Z,3.10
2023-01-08T15:49:06.882Z,3.00
2023-01-08T15:51:35.901Z,3.20
2023-01-08T15:54:05.662Z,3.60
2023-01-08T15:56:34.093Z,2.97
2023-01-08T15:59:02.461Z,2.90
2023-01-08T16:01:31.003Z,3.03
2023-01-08T16:03:59.659Z,2.90
2023-01-08T16:06:28.215Z,2.83
2023-01-08T16:08:59.909Z,3.13
2023-01-08T16:11:29.711Z,3.50
2023-01-08T16:13:58.029Z,2.87
2023-01-08T16:16:26.503Z,3.30
2023-01-08T16:18:55.252Z,3.17
2023-01-08T16:21:23.645Z,3.60
2023-01-08T16:23:51.974Z,3.37
2023-01-08T16:26:20.299Z,3.00
2023-01-08T16:28:50.149Z,3.20
2023-01-08T16:31:18.482Z,3.53
2023-01-08T16:33:46.944Z,3.50
2023-01-08T16:36:15.287Z,5.90
2023-01-08T16:38:43.698Z,4.13
2023-01-08T16:41:12.103Z,3.37
2023-01-08T16:43:41.187Z,3.43
2023-01-08T16:46:14.801Z,3.40
2023-01-08T16:48:43.571Z,3.13
2023-01-08T16:51:12.560Z,3.03
2023-01-08T16:53:41.036Z,3.10
2023-01-08T16:56:10.144Z,4.07
2023-01-08T16:58:38.681Z,3.60
2023-01-08T17:01:09.486Z,3.20
2023-01-08T17:03:40.152Z,3.53
2023-01-08T17:06:09.672Z,3.60
2023-01-08T17:08:40.270Z,3.60
2023-01-08T17:11:10.036Z,3.10
2023-01-08T17:13:38.405Z,2.97
2023-01-08T17:16:07.335Z,3.70
2023-01-08T17:18:36.073Z,3.33
2023-01-08T17:21:06.106Z,3.50
2023-01-08T17:23:35.080Z,3.73
2023-01-08T17:26:04.783Z,3.57
2023-01-08T17:28:35.022Z,3.90
2023-01-08T17:31:04.478Z,3.77
2023-01-08T17:33:33.137Z,3.87
2023-01-08T17:36:01.585Z,3.57
2023-01-08T17:38:31.385Z,4.50
2023-01-08T17:41:02.290Z,3.47
2023-01-08T17:43:30.873Z,5.30
2023-01-08T17:46:03.086Z,4.83
2023-01-08T17:48:31.616Z,4.30
2023-01-08T17:51:00.981Z,6.50
2023-01-08T17:53:31.204Z,4.27
2023-01-08T17:56:02.088Z,8.37
2023-01-08T17:58:30.447Z,12.33
2023-01-08T18:00:58.928Z,14.43
2023-01-08T18:03:27.564Z,18.00
2023-01-08T18:05:55.891Z,22.23
2023-01-08T18:08:25.674Z,18.30
2023-01-08T18:10:55.066Z,28.63
2023-01-08T18:13:23.443Z,31.60
2023-01-08T18:15:51.811Z,18.97
2023-01-08T18:18:20.200Z,19.43
2023-01-08T18:20:48.658Z,13.47
2023-01-08T18:23:18.239Z,25.10
2023-01-08T18:25:46.722Z,10.03
2023-01-08T18:28:16.672Z,8.57
2023-01-08T18:30:46.232Z,10.00
2023-01-08T18:33:14.619Z,6.47
2023-01-08T18:35:43.051Z,9.50
2023-01-08T18:38:15.832Z,12.27
2023-01-08T18:40:44.535Z,14.60
2023-01-08T18:43:13.514Z,18.83
2023-01-08T18:45:43.816Z,8.80
2023-01-08T18:48:12.476Z,5.27
2023-01-08T18:50:41.502Z,3.73
2023-01-08T18:53:10.122Z,16.07
2023-01-08T18:55:38.748Z,36.47
2023-01-08T18:58:07.129Z,21.30
2023-01-08T19:00:37.375Z,13.80
2023-01-08T19:03:09.041Z,4.67
2023-01-08T19:05:41.415Z,3.97
2023-01-08T19:08:09.932Z,4.20
2023-01-08T19:10:38.625Z,4.30
2023-01-08T19:13:07.621Z,4.53
2023-01-08T19:15:35.999Z,4.03
2023-01-08T19:18:05.313Z,2.90
2023-01-08T19:20:35.178Z,3.17
2023-01-08T19:23:03.567Z,3.23
2023-01-08T19:25:31.963Z,4.27
2023-01-08T19:28:00.426Z,7.10
2023-01-08T19:30:30.592Z,6.13
2023-01-08T19:32:58.957Z,10.43
2023-01-08T19:35:27.287Z,3.33
2023-01-08T19:37:56.703Z,3.30
2023-01-08T19:40:25.077Z,3.50
2023-01-08T19:43:11.316Z,3.20
2023-01-08T19:45:39.796Z,3.30
2023-01-08T19:48:08.544Z,4.43
2023-01-08T19:50:39.031Z,3.77
2023-01-08T19:53:09.064Z,4.57
2023-01-08T19:55:38.488Z,4.30
2023-01-08T19:58:07.066Z,9.03
2023-01-08T20:00:37.597Z,5.37
2023-01-08T20:03:06.540Z,3.23
2023-01-08T20:05:34.979Z,3.03
2023-01-08T20:08:03.505Z,3.40
2023-01-08T20:10:33.247Z,3.07
2023-01-08T20:13:01.641Z,2.93
2023-01-08T20:15:30.067Z,3.53
2023-01-08T20:17:58.598Z,3.80
2023-01-08T20:20:26.976Z,3.33
2023-01-08T20:22:55.428Z,3.13
2023-01-08T20:25:23.918Z,2.90
2023-01-08T20:27:53.410Z,2.90
2023-01-08T20:30:21.739Z,3.17
2023-01-08T20:35:23.511Z,3.03
2023-01-08T20:37:51.927Z,4.00
2023-01-08T20:40:20.279Z,4.10
2023-01-08T20:42:48.642Z,3.50
2023-01-08T20:45:18.660Z,3.00
2023-01-08T20:47:47.189Z,3.40
2023-01-08T20:50:20.079Z,3.07
2023-01-08T20:52:48.902Z,3.13
2023-01-08T20:55:18.591Z,3.13
2023-01-08T20:57:47.109Z,3.17
2023-01-08T21:00:15.870Z,3.67
2023-01-08T21:02:45.348Z,3.13
2023-01-08T21:05:13.756Z,3.80
2023-01-08T21:07:42.199Z,4.33
2023-01-08T21:10:11.968Z,3.93
2023-01-08T21:12:40.347Z,3.10
2023-01-08T21:15:09.951Z,3.93
2023-01-08T21:17:38.319Z,3.60
2023-01-08T21:20:09.155Z,3.57
2023-01-08T21:22:37.541Z,5.07
2023-01-08T21:25:06.489Z,5.03
2023-01-08T21:27:34.834Z,4.00
2023-01-08T21:30:04.040Z,3.43
2023-01-08T21:32:32.375Z,3.20
2023-01-08T21:35:00.768Z,3.60
2023-01-08T21:37:31.380Z,3.63
2023-01-08T21:40:00.198Z,3.37
2023-01-08T21:42:46.371Z,4.60
2023-01-08T21:45:27.635Z,3.47
2023-01-08T21:47:58.543Z,4.30
2023-01-08T21:50:27.749Z,3.37
2023-01-08T21:53:15.262Z,3.33
2023-01-08T21:55:43.633Z,3.67
2023-01-08T21:58:12.048Z,3.40
2023-01-08T22:00:40.399Z,3.47
2023-01-08T22:03:08.757Z,3.57
2023-01-08T22:05:37.114Z,3.30
2023-01-08T22:08:08.664Z,4.20
2023-01-08T22:10:37.012Z,4.27
2023-01-08T22:13:07.119Z,4.10
2023-01-08T22:15:35.464Z,4.53
2023-01-08T22:18:04.374Z,3.57
2023-01-08T22:20:32.689Z,3.50
2023-01-08T22:23:01.011Z,4.17
2023-01-08T22:25:30.743Z,3.80
2023-01-08T22:27:59.052Z,3.23
2023-01-08T22:30:27.408Z,5.43
2023-01-08T22:32:55.746Z,3.87
2023-01-08T22:35:24.128Z,3.83
2023-01-08T22:37:52.452Z,3.90
2023-01-08T22:40:20.857Z,3.77
2023-01-08T22:42:50.587Z,3.80
2023-01-08T22:45:19.082Z,4.23
2023-01-08T22:47:47.419Z,3.70
2023-01-08T22:50:15.865Z,3.87
2023-01-08T22:52:43.938Z,4.23
2023-01-08T22:55:12.256Z,3.87
2023-01-08T22:57:40.631Z,3.57
2023-01-08T23:00:11.564Z,4.17
2023-01-08T23:02:39.702Z,3.17
2023-01-08T23:05:08.330Z,3.90
2023-01-08T23:07:36.643Z,3.10
2023-01-08T23:10:05.369Z,3.50
2023-01-08T23:12:34.425Z,3.37
2023-01-08T23:15:04.463Z,3.60
2023-01-08T23:17:44.599Z,3.90
2023-01-08T23:20:20.483Z,3.80
2023-01-08T23:22:49.143Z,3.57
2023-01-08T23:25:17.927Z,3.97
2023-01-08T23:27:46.428Z,3.60
2023-01-08T23:30:14.926Z,3.10
2023-01-08T23:32:44.361Z,3.50
2023-01-08T23:35:12.698Z,4.60
2023-01-08T23:37:41.132Z,3.27
2023-01-08T23:40:10.113Z,3.50
2023-01-08T23:42:38.458Z,4.20
2023-01-08T23:45:09.368Z,4.23
2023-01-08T23:47:38.791Z,3.23
2023-01-08T23:50:09.642Z,3.00
2023-01-08T23:52:38.039Z,3.90
2023-01-08T23:55:06.944Z,4.07
2023-01-08T23:57:35.057Z,3.70
